Time;durP1;ratioP1;P1;durP2;ratioP2;P2;SDS_P1;SDS_P2;PMS_P1;PMS_P2;Temp;Humidity;BMP_temperature;BMP_pressure;BME280_temperature;BME280_humidity;BME280_pressure;Samples;Min_cycle;Max_cycle;Signal;HPM_P1;HPM_P2
2023/03/22 00:00:47;;;;;;;7.05;4.38;;;18.70;78.70;;;;;;5111002;28;20672;-63
2023/03/22 00:03:36;;;;;;;3.97;3.58;;;18.70;78.70;;;;;;5111113;28;20195;-65
2023/03/22 00:06:25;;;;;;;5.38;3.67;;;18.80;89.40;;;;;;5110714;28;20199;-64
2023/03/22 00:09:13;;;;;;;4.32;3.85;;;18.70;78.40;;;;;;5111407;28;20191;-66
2023/03/22 00:12:01;;;;;;;4.28;3.78;;;18.70;78.50;;;;;;5110766;28;20195;-66
2023/03/22 00:14:51;;;;;;;7.10;5.00;;;18.70;78.30;;;;;;5111431;28;20236;-66
2023/03/22 00:17:40;;;;;;;3.65;3.30;;;18.70;77.70;;;;;;5111037;28;20229;-66
2023/03/22 00:20:30;;;;;;;5.97;4.00;;;18.70;78.00;;;;;;5110839;28;20209;-66
2023/03/22 00:23:18;;;;;;;4.72;4.28;;;18.70;78.10;;;;;;5110252;28;20274;-66
2023/03/22 00:26:07;;;;;;;4.18;3.83;;;18.80;77.90;;;;;;5110522;28;20340;-66
2023/03/22 00:28:55;;;;;;;4.03;3.10;;;18.80;78.10;;;;;;5112475;28;20235;-65
2023/03/22 00:31:43;;;;;;;4.50;3.63;;;18.80;78.00;;;;;;5114516;28;20309;-66
2023/03/22 00:34:33;;;;;;;4.38;3.97;;;18.70;78.20;;;;;;5114923;28;20561;-66
2023/03/22 00:37:21;;;;;;;5.55;4.00;;;18.70;78.30;;;;;;5114862;28;20264;-66
2023/03/22 00:40:12;;;;;;;3.95;3.13;;;18.70;78.30;;;;;;5114410;28;20227;-66
2023/03/22 00:43:00;;;;;;;4.60;3.47;;;18.70;78.50;;;;;;5114596;28;20241;-66
2023/03/22 00:45:48;;;;;;;3.70;3.40;;;18.60;78.10;;;;;;5114444;28;20199;-66
2023/03/22 00:48:36;;;;;;;3.72;3.42;;;18.60;78.30;;;;;;5114906;28;20584;-66
2023/03/22 00:51:26;;;;;;;4.60;4.20;;;18.60;78.20;;;;;;5115225;28;20268;-63
2023/03/22 00:54:15;;;;;;;4.72;3.80;;;18.50;78.40;;;;;;5115094;28;20217;-63
2023/03/22 00:57:04;;;;;;;3.92;3.50;;;18.60;78.30;;;;;;5109116;28;20219;-62
2023/03/22 00:59:52;;;;;;;3.90;3.50;;;18.60;78.30;;;;;;5094732;28;20346;-63
2023/03/22 01:02:41;;;;;;;3.63;3.33;;;18.50;78.10;;;;;;5094882;28;20203;-63
2023/03/22 01:05:32;;;;;;;4.05;3.25;;;18.50;78.50;;;;;;5095207;28;20286;-64
2023/03/22 01:08:21;;;;;;;3.65;3.30;;;18.60;78.80;;;;;;5094447;28;20256;-63
2023/03/22 01:11:10;;;;;;;5.78;3.65;;;18.60;79.00;;;;;;5095653;28;20200;-62
2023/03/22 01:13:58;;;;;;;4.82;3.55;;;18.60;78.00;;;;;;5094956;28;20199;-63
2023/03/22 01:16:46;;;;;;;3.60;3.30;;;18.60;77.30;;;;;;5094494;28;20223;-63
2023/03/22 01:19:35;;;;;;;3.72;3.40;;;18.60;77.80;;;;;;5094622;28;20204;-64
2023/03/22 01:22:23;;;;;;;3.80;3.50;;;18.60;77.80;;;;;;5093801;28;20668;-64
2023/03/22 01:25:13;;;;;;;3.50;3.20;;;18.60;78.30;;;;;;5094648;28;20200;-64
2023/03/22 01:28:01;;;;;;;3.30;3.00;;;18.70;78.00;;;;;;5095087;28;20259;-64
2023/03/22 01:30:50;;;;;;;3.88;3.40;;;18.70;77.70;;;;;;5094442;28;20232;-64
2023/03/22 01:33:38;;;;;;;4.10;3.47;;;18.70;77.70;;;;;;5095388;28;20672;-64
2023/03/22 01:36:26;;;;;;;5.55;3.88;;;18.80;91.60;;;;;;5094252;28;20229;-64
2023/03/22 01:39:14;;;;;;;3.85;3.28;;;18.80;77.60;;;;;;5093877;28;20261;-64
2023/03/22 01:42:04;;;;;;;4.38;3.30;;;18.80;77.40;;;;;;5093433;28;20261;-64
2023/03/22 01:45:33;;;;;;;5.40;3.53;;;18.80;77.40;;;;;;5094198;28;20675;-64
2023/03/22 01:48:26;;;;;;;3.58;3.28;;;18.80;77.20;;;;;;5093856;28;20219;-63
2023/03/22 01:51:18;;;;;;;4.07;2.90;;;18.80;77.30;;;;;;5094341;28;20219;-63
2023/03/22 01:54:10;;;;;;;4.38;3.10;;;18.80;77.30;;;;;;5093594;28;20196;-63
2023/03/22 01:56:59;;;;;;;3.38;3.08;;;18.80;77.30;;;;;;5097709;28;20723;-64
2023/03/22 01:59:49;;;;;;;3.15;2.78;;;18.80;77.20;;;;;;5114471;28;20244;-64
2023/03/22 02:02:37;;;;;;;3.10;2.80;;;18.80;77.30;;;;;;5114175;28;20206;-63
2023/03/22 02:05:26;;;;;;;3.97;3.15;;;18.80;77.20;;;;;;5112617;28;20207;-63
2023/03/22 02:08:15;;;;;;;5.18;3.45;;;18.80;77.00;;;;;;5114178;28;20211;-63
2023/03/22 02:11:04;;;;;;;5.97;3.47;;;18.80;76.90;;;;;;5110101;28;20207;-62
2023/03/22 02:14:24;;;;;;;3.05;2.85;;;18.70;77.10;;;;;;5095665;28;20208;-64
2023/03/22 02:17:27;;;;;;;5.57;4.30;;;18.70;77.10;;;;;;5092691;28;20216;-63
2023/03/22 02:20:44;;;;;;;3.60;3.38;;;18.70;77.10;;;;;;5092822;28;20248;-64
2023/03/22 02:23:59;;;;;;;3.92;3.53;;;18.70;76.90;;;;;;5093141;28;20211;-64
2023/03/22 02:27:22;;;;;;;3.80;3.50;;;18.70;76.90;;;;;;5093296;28;20228;-63
2023/03/22 02:30:36;;;;;;;4.25;3.85;;;18.70;77.10;;;;;;5093019;28;20188;-61
2023/03/22 02:33:50;;;;;;;3.92;3.55;;;18.70;77.00;;;;;;5092521;28;20743;-64
2023/03/22 02:37:12;;;;;;;3.75;3.03;;;18.70;77.10;;;;;;5092931;28;20786;-62
2023/03/22 02:40:05;;;;;;;3.65;3.35;;;18.60;77.00;;;;;;5092607;28;20200;-64
2023/03/22 02:42:57;;;;;;;4.32;3.38;;;18.60;77.20;;;;;;5092139;28;20232;-63
2023/03/22 02:45:50;;;;;;;3.00;2.80;;;18.60;77.20;;;;;;5094891;28;20231;-64
2023/03/22 02:48:47;;;;;;;3.95;3.03;;;18.50;77.20;;;;;;5093864;28;20247;-63
2023/03/22 02:51:41;;;;;;;4.10;3.30;;;17.60;76.30;;;;;;5092971;28;20280;-63
2023/03/22 02:54:37;;;;;;;3.95;3.00;;;18.50;77.30;;;;;;5093910;28;20204;-62
2023/03/22 02:57:33;;;;;;;3.15;2.80;;;18.50;77.20;;;;;;5092479;28;20310;-63
2023/03/22 03:00:21;;;;;;;4.00;2.70;;;18.50;77.10;;;;;;5092272;28;20584;-63
2023/03/22 03:03:17;;;;;;;3.60;2.90;;;18.50;77.00;;;;;;5091501;28;20204;-64
2023/03/22 03:06:09;;;;;;;3.08;2.88;;;18.50;77.00;;;;;;5092870;28;20666;-64
2023/03/22 03:09:01;;;;;;;3.60;3.30;;;18.60;77.10;;;;;;5092434;28;20192;-63
2023/03/22 03:11:51;;;;;;;3.45;3.15;;;18.50;76.90;;;;;;5091003;28;20192;-64
2023/03/22 03:14:41;;;;;;;3.75;3.17;;;18.50;76.80;;;;;;5092394;28;20207;-62
2023/03/22 03:17:40;;;;;;;4.40;3.13;;;18.50;76.90;;;;;;5090815;28;20244;-63
2023/03/22 03:20:41;;;;;;;2.90;2.63;;;18.50;76.80;;;;;;5091218;28;20318;-64
2023/03/22 03:23:38;;;;;;;3.53;3.22;;;18.50;76.80;;;;;;5091205;28;20196;-64
2023/03/22 03:26:35;;;;;;;4.28;3.88;;;18.50;91.10;;;;;;5091507;28;20735;-63
2023/03/22 03:29:31;;;;;;;3.38;3.10;;;18.50;76.80;;;;;;5091379;28;20196;-64
2023/03/22 03:32:26;;;;;;;5.10;3.60;;;18.50;76.60;;;;;;5091486;28;20231;-63
2023/03/22 03:35:22;;;;;;;3.45;3.10;;;18.50;76.60;;;;;;5091635;28;20599;-63
2023/03/22 03:38:13;;;;;;;3.83;3.42;;;18.50;76.60;;;;;;5092003;28;20349;-63
2023/03/22 03:41:04;;;;;;;4.05;3.25;;;18.50;77.30;;;;;;5091149;28;20270;-63
2023/03/22 03:43:54;;;;;;;4.47;3.15;;;18.50;76.60;;;;;;5091523;28;20192;-63
2023/03/22 03:46:44;;;;;;;3.55;3.22;;;18.50;76.70;;;;;;5090051;28;20642;-63
2023/03/22 03:49:34;;;;;;;5.32;4.38;;;18.50;76.70;;;;;;5091449;28;20644;-63
2023/03/22 03:52:23;;;;;;;4.53;4.13;;;18.40;76.60;;;;;;5090747;28;20529;-64
2023/03/22 03:55:11;;;;;;;4.22;3.78;;;18.50;76.90;;;;;;5090872;28;20200;-63
2023/03/22 03:57:59;;;;;;;4.38;3.97;;;18.50;76.60;;;;;;5104156;28;20211;-63
2023/03/22 04:00:48;;;;;;;5.03;3.88;;;18.50;76.70;;;;;;5111544;28;20240;-63
2023/03/22 04:03:36;;;;;;;4.95;4.45;;;18.50;77.30;;;;;;5111747;28;20227;-64
2023/03/22 04:06:26;;;;;;;7.22;4.10;;;18.70;87.50;;;;;;5111909;28;20282;-63
2023/03/22 04:09:14;;;;;;;3.10;2.90;;;18.50;76.20;;;;;;5116507;28;20213;-63
2023/03/22 04:12:02;;;;;;;5.05;3.83;;;18.50;76.30;;;;;;5111046;28;20203;-66
2023/03/22 04:14:50;;;;;;;5.32;3.55;;;18.50;76.40;;;;;;5092489;28;20286;-66
2023/03/22 04:17:38;;;;;;;3.55;3.20;;;18.50;76.50;;;;;;5090660;28;20306;-66
2023/03/22 04:20:26;;;;;;;5.78;3.63;;;18.50;76.50;;;;;;5092057;28;20230;-66
2023/03/22 04:23:16;;;;;;;4.18;3.78;;;18.50;76.60;;;;;;5091053;28;20636;-66
2023/03/22 04:26:04;;;;;;;4.00;3.70;;;18.40;76.60;;;;;;5091700;28;20299;-66
2023/03/22 04:28:52;;;;;;;4.85;2.90;;;18.40;76.60;;;;;;5095005;22;20798;-62
2023/03/22 04:31:40;;;;;;;3.20;2.97;;;18.30;76.60;;;;;;5071918;28;20283;-62
2023/03/22 04:34:30;;;;;;;3.55;2.92;;;18.30;76.60;;;;;;5071667;28;20197;-64
2023/03/22 04:37:21;;;;;;;3.60;3.20;;;18.40;76.60;;;;;;5091444;28;20580;-62
2023/03/22 04:40:15;;;;;;;3.20;2.85;;;18.30;76.60;;;;;;5091680;28;20688;-62
2023/03/22 04:43:03;;;;;;;3.72;3.42;;;18.30;76.60;;;;;;5091392;28;20200;-62
2023/03/22 04:45:53;;;;;;;3.50;3.20;;;18.30;76.60;;;;;;5091913;28;20196;-61
2023/03/22 04:48:42;;;;;;;3.95;3.40;;;18.30;76.70;;;;;;5090981;28;20216;-62
2023/03/22 04:51:30;;;;;;;4.18;3.67;;;18.30;76.70;;;;;;5090714;28;20341;-62
2023/03/22 04:54:19;;;;;;;3.55;3.25;;;18.30;77.10;;;;;;5091445;28;20763;-62
2023/03/22 04:57:08;;;;;;;4.03;3.70;;;18.40;77.00;;;;;;5097011;28;20618;-61
2023/03/22 04:59:56;;;;;;;3.67;3.03;;;18.30;76.70;;;;;;5111945;28;20230;-62
2023/03/22 05:02:44;;;;;;;5.97;3.53;;;18.40;76.80;;;;;;5111782;28;20209;-62
2023/03/22 05:05:32;;;;;;;3.38;3.08;;;18.30;76.60;;;;;;5111447;28;20199;-62
2023/03/22 05:08:20;;;;;;;4.97;3.53;;;18.30;76.50;;;;;;5112324;28;20766;-62
2023/03/22 05:11:11;;;;;;;3.55;3.25;;;18.40;76.60;;;;;;5111885;28;20192;-62
2023/03/22 05:14:01;;;;;;;3.83;3.53;;;18.30;76.40;;;;;;5111870;28;20689;-62
2023/03/22 05:16:49;;;;;;;5.28;4.00;;;18.20;87.40;;;;;;5114457;28;20200;-62
2023/03/22 05:19:37;;;;;;;3.90;3.38;;;18.40;76.50;;;;;;5115573;28;20710;-62
2023/03/22 05:22:25;;;;;;;3.65;3.35;;;18.40;76.40;;;;;;5115799;28;20647;-62
2023/03/22 05:25:13;;;;;;;3.60;2.75;;;18.40;76.30;;;;;;5116384;28;20306;-62
2023/03/22 05:28:01;;;;;;;3.60;3.28;;;18.50;76.30;;;;;;5114784;28;20333;-62
2023/03/22 05:30:51;;;;;;;2.55;2.35;;;18.50;76.20;;;;;;5115178;28;20276;-62
2023/03/22 05:33:41;;;;;;;3.00;2.80;;;18.40;76.00;;;;;;5115233;28;20199;-62
2023/03/22 05:36:29;;;;;;;3.40;3.10;;;18.50;76.10;;;;;;5115078;28;20203;-61
2023/03/22 05:39:17;;;;;;;3.42;2.88;;;18.50;76.20;;;;;;5115107;28;20625;-62
2023/03/22 05:42:05;;;;;;;3.08;2.88;;;18.40;76.10;;;;;;5115303;28;20199;-62
2023/03/22 05:44:54;;;;;;;3.60;3.30;;;18.40;76.00;;;;;;5115062;28;20218;-62
2023/03/22 05:47:43;;;;;;;3.60;3.30;;;18.40;76.10;;;;;;5115762;28;20219;-62
2023/03/22 05:50:32;;;;;;;4.65;4.00;;;18.40;76.10;;;;;;5114749;28;20202;-62
2023/03/22 05:53:20;;;;;;;3.88;3.38;;;18.40;76.10;;;;;;5114958;28;20200;-62
2023/03/22 05:56:09;;;;;;;3.35;3.00;;;18.40;76.00;;;;;;5114857;28;20328;-62
2023/03/22 05:58:58;;;;;;;7.05;4.18;;;18.50;76.10;;;;;;5075355;28;20626;-61
2023/03/22 06:01:46;;;;;;;4.95;3.83;;;18.40;76.00;;;;;;5074584;28;20692;-62
2023/03/22 06:04:35;;;;;;;4.18;3.78;;;18.40;76.00;;;;;;5075394;28;20204;-61
2023/03/22 06:07:24;;;;;;;3.67;3.35;;;18.40;76.00;;;;;;5074402;28;20242;-61
2023/03/22 06:10:14;;;;;;;3.28;2.97;;;18.40;76.10;;;;;;5074553;28;20274;-62
2023/03/22 06:13:02;;;;;;;6.50;3.72;;;18.30;76.20;;;;;;5074484;28;20280;-62
2023/03/22 06:15:51;;;;;;;7.85;5.63;;;18.40;76.30;;;;;;5075061;28;20197;-62
2023/03/22 06:18:39;;;;;;;6.35;4.97;;;18.40;76.30;;;;;;5074523;28;20727;-62
2023/03/22 06:21:29;;;;;;;3.83;3.45;;;18.30;76.10;;;;;;5074337;28;20216;-62
2023/03/22 06:24:17;;;;;;;5.82;3.35;;;18.30;76.20;;;;;;5074337;28;20232;-62
2023/03/22 06:27:05;;;;;;;15.18;4.57;;;18.30;76.10;;;;;;5072644;28;20700;-62
2023/03/22 06:29:53;;;;;;;16.95;5.05;;;18.40;76.10;;;;;;5073747;28;20271;-62
2023/03/22 06:32:41;;;;;;;10.48;3.53;;;18.40;76.20;;;;;;5073885;28;20234;-62
2023/03/22 06:35:29;;;;;;;5.20;3.10;;;18.40;76.00;;;;;;5075412;28;20208;-62
2023/03/22 06:38:19;;;;;;;6.03;3.20;;;18.40;76.00;;;;;;5096544;28;20543;-62
2023/03/22 06:41:07;;;;;;;4.82;3.13;;;18.40;76.00;;;;;;5073825;28;20220;-62
2023/03/22 06:43:55;;;;;;;6.63;2.78;;;18.40;76.00;;;;;;5073711;28;20287;-62
2023/03/22 06:46:43;;;;;;;7.45;3.05;;;18.40;75.90;;;;;;5090523;28;20202;-62
2023/03/22 06:49:31;;;;;;;5.32;3.40;;;18.40;76.00;;;;;;5092756;28;20690;-62
2023/03/22 06:52:19;;;;;;;6.13;3.25;;;18.40;76.00;;;;;;5092518;28;20200;-62
2023/03/22 06:55:09;;;;;;;5.95;3.10;;;18.40;76.10;;;;;;5093075;28;20191;-62
2023/03/22 06:57:57;;;;;;;5.80;3.60;;;18.40;76.10;;;;;;5106830;28;20268;-62
2023/03/22 07:00:46;;;;;;;9.95;4.43;;;18.40;76.20;;;;;;5099182;28;20231;-61
2023/03/22 07:03:34;;;;;;;16.67;4.63;;;18.40;76.30;;;;;;5091636;28;20727;-62
2023/03/22 07:06:22;;;;;;;6.88;3.90;;;18.50;76.10;;;;;;5092491;28;20206;-62
2023/03/22 07:09:11;;;;;;;5.95;4.40;;;18.50;75.90;;;;;;5092836;28;20285;-62
2023/03/22 07:12:00;;;;;;;5.80;4.70;;;18.50;76.00;;;;;;5085295;28;20661;-62
2023/03/22 07:14:48;;;;;;;4.50;3.95;;;18.40;76.00;;;;;;5090018;28;20691;-62
2023/03/22 07:17:36;;;;;;;17.95;7.25;;;18.40;76.10;;;;;;5072646;28;20303;-62
2023/03/22 07:20:24;;;;;;;120.45;19.25;;;18.40;76.40;;;;;;5073211;28;20299;-62
2023/03/22 07:23:14;;;;;;;52.15;10.63;;;18.40;76.60;;;;;;5089063;28;20200;-62
2023/03/22 07:26:02;;;;;;;32.65;7.95;;;18.40;76.60;;;;;;5080907;28;20208;-62
2023/03/22 07:28:52;;;;;;;16.30;5.20;;;18.40;76.70;;;;;;5071229;28;20359;-62
2023/03/22 07:31:41;;;;;;;19.63;7.93;;;18.40;76.60;;;;;;5072349;28;20201;-62
2023/03/22 07:34:29;;;;;;;16.15;8.20;;;18.50;76.80;;;;;;5072943;28;20242;-62
2023/03/22 07:37:17;;;;;;;9.88;4.78;;;18.50;76.70;;;;;;5079328;28;20248;-62
2023/03/22 07:40:07;;;;;;;8.25;5.22;;;18.50;76.60;;;;;;5088056;28;20201;-62
2023/03/22 07:42:55;;;;;;;7.75;4.55;;;18.60;76.70;;;;;;5076453;28;20236;-61
2023/03/22 07:45:44;;;;;;;6.15;3.65;;;18.60;76.60;;;;;;5083140;28;20291;-62
2023/03/22 07:48:33;;;;;;;6.22;3.75;;;18.60;76.50;;;;;;5072648;28;20683;-62
2023/03/22 07:51:21;;;;;;;12.55;6.45;;;18.60;76.60;;;;;;5082892;28;20208;-61
2023/03/22 07:54:09;;;;;;;13.73;6.18;;;18.60;76.70;;;;;;5083248;28;20216;-62
2023/03/22 07:57:01;;;;;;;7.25;3.28;;;18.90;91.20;;;;;;5083354;28;20704;-62
2023/03/22 07:59:49;;;;;;;11.40;2.95;;;18.70;76.80;;;;;;5079053;28;20722;-62
2023/03/22 08:02:38;;;;;;;4.68;2.67;;;18.70;77.00;;;;;;5091404;28;20215;-62
2023/03/22 08:05:27;;;;;;;4.95;2.45;;;18.80;77.40;;;;;;5086344;28;20212;-62
2023/03/22 08:08:15;;;;;;;4.60;1.92;;;18.90;77.40;;;;;;5089608;28;20227;-62
2023/03/22 08:11:03;;;;;;;6.05;2.50;;;19.10;77.30;;;;;;5081850;28;20226;-62
2023/03/22 08:13:53;;;;;;;4.35;3.03;;;19.20;77.00;;;;;;5072482;28;20201;-61
2023/03/22 08:16:42;;;;;;;8.02;3.60;;;19.30;76.60;;;;;;5072718;28;20222;-62
2023/03/22 08:19:33;;;;;;;6.55;3.10;;;19.50;76.40;;;;;;5071659;28;20275;-62
2023/03/22 08:22:23;;;;;;;5.18;2.58;;;19.90;76.30;;;;;;5071133;28;20231;-62
2023/03/22 08:25:13;;;;;;;5.15;2.25;;;19.80;75.80;;;;;;5074596;28;20330;-62
2023/03/22 08:28:01;;;;;;;5.15;1.92;;;19.90;75.30;;;;;;5090915;28;20230;-62
2023/03/22 08:30:51;;;;;;;6.50;2.58;;;20.10;75.00;;;;;;5091031;28;20196;-62
2023/03/22 08:33:39;;;;;;;9.40;3.13;;;20.20;74.60;;;;;;5091017;28;20706;-62
2023/03/22 08:36:29;;;;;;;7.88;2.45;;;20.40;74.50;;;;;;5091049;28;20275;-64
2023/03/22 08:39:17;;;;;;;24.30;5.40;;;20.40;74.10;;;;;;5092472;28;20210;-62
2023/03/22 08:42:05;;;;;;;8.52;2.50;;;20.50;73.90;;;;;;5090802;28;20212;-62
2023/03/22 08:44:53;;;;;;;5.20;2.15;;;20.60;73.70;;;;;;5081392;28;20206;-63
2023/03/22 08:47:42;;;;;;;14.63;3.40;;;20.70;73.60;;;;;;5086520;28;20230;-65
2023/03/22 08:50:33;;;;;;;7.07;2.60;;;20.70;73.70;;;;;;5088738;28;20226;-64
2023/03/22 08:53:22;;;;;;;5.45;2.67;;;20.80;73.70;;;;;;5093269;28;20212;-66
2023/03/22 08:56:11;;;;;;;9.88;2.22;;;21.00;73.50;;;;;;5096792;28;20195;-65
2023/03/22 08:58:59;;;;;;;1.70;1.50;;;21.10;73.30;;;;;;5074951;28;20219;-68
2023/03/22 09:01:47;;;;;;;4.25;1.65;;;21.10;73.00;;;;;;5111753;28;20427;-66
2023/03/22 09:04:35;;;;;;;2.42;2.05;;;21.20;73.00;;;;;;5085716;28;20208;-65
2023/03/22 09:07:23;;;;;;;5.97;2.00;;;20.30;71.90;;;;;;5082735;28;20223;-65
2023/03/22 09:10:14;;;;;;;3.10;1.95;;;21.30;72.90;;;;;;5077286;28;20222;-67
2023/03/22 09:13:01;;;;;;;5.70;1.80;;;21.30;72.70;;;;;;5082775;28;20197;-65
2023/03/22 09:15:50;;;;;;;4.50;2.65;;;21.40;72.80;;;;;;5080097;28;20220;-68
2023/03/22 09:18:39;;;;;;;3.75;2.63;;;21.50;72.30;;;;;;5093557;28;20220;-68
2023/03/22 09:21:28;;;;;;;10.25;2.75;;;21.50;72.00;;;;;;5091325;28;20228;-65
2023/03/22 09:24:17;;;;;;;2.78;2.33;;;21.60;72.10;;;;;;5092271;28;20200;-64
2023/03/22 09:27:06;;;;;;;6.68;2.75;;;21.90;88.60;;;;;;5092327;28;20283;-66
2023/03/22 09:29:54;;;;;;;5.07;2.50;;;21.70;72.10;;;;;;5093115;28;20208;-64
2023/03/22 09:32:42;;;;;;;9.00;3.78;;;21.90;71.90;;;;;;5082623;28;20203;-67
2023/03/22 09:35:30;;;;;;;7.65;3.53;;;21.90;71.80;;;;;;5091967;28;20436;-66
2023/03/22 09:38:19;;;;;;;4.60;2.40;;;21.80;71.70;;;;;;5074247;28;20274;-64
2023/03/22 09:41:13;;;;;;;4.00;2.15;;;21.90;71.80;;;;;;5071742;28;20676;-66
2023/03/22 09:44:06;;;;;;;4.30;2.00;;;21.80;71.70;;;;;;5086004;28;20235;-65
2023/03/22 09:46:58;;;;;;;6.40;1.77;;;22.00;81.50;;;;;;5072773;28;20213;-62
2023/03/22 09:49:50;;;;;;;6.20;1.50;;;21.80;71.70;;;;;;5074056;28;20205;-63
2023/03/22 09:52:42;;;;;;;4.57;1.60;;;21.80;71.70;;;;;;5074313;28;20200;-66
2023/03/22 09:55:37;;;;;;;4.63;1.73;;;21.90;71.70;;;;;;5072499;28;20209;-66
2023/03/22 09:58:32;;;;;;;2.92;1.55;;;21.80;71.70;;;;;;5072417;28;20225;-65
2023/03/22 10:01:30;;;;;;;7.75;2.17;;;21.80;71.70;;;;;;5071182;28;20244;-66
2023/03/22 10:04:34;;;;;;;4.47;2.13;;;21.90;71.70;;;;;;5072573;28;20278;-66
2023/03/22 10:07:27;;;;;;;2.45;1.70;;;21.90;71.70;;;;;;5072870;28;20224;-67
2023/03/22 10:10:18;;;;;;;3.80;1.73;;;21.80;71.60;;;;;;5072192;28;20209;-67
2023/03/22 10:13:16;;;;;;;3.38;1.35;;;21.90;71.70;;;;;;5075607;28;20200;-65
2023/03/22 10:16:09;;;;;;;4.38;1.90;;;21.90;71.80;;;;;;5079336;28;20682;-67
2023/03/22 10:19:05;;;;;;;4.10;1.33;;;21.90;71.70;;;;;;5079140;28;20216;-66
2023/03/22 10:21:55;;;;;;;3.13;1.80;;;21.80;71.60;;;;;;5081641;28;20308;-65
2023/03/22 10:24:48;;;;;;;4.47;1.60;;;21.90;71.70;;;;;;5092168;28;20794;-67
2023/03/22 10:27:37;;;;;;;3.15;1.50;;;21.90;71.90;;;;;;5090907;28;20707;-66
2023/03/22 10:30:27;;;;;;;4.63;2.05;;;21.90;71.90;;;;;;5090713;28;20283;-67
2023/03/22 10:33:22;;;;;;;3.65;1.88;;;21.90;72.00;;;;;;5091789;28;20210;-68
2023/03/22 10:36:13;;;;;;;8.25;1.80;;;21.80;71.90;;;;;;5091225;28;20278;-67
2023/03/22 10:39:10;;;;;;;3.00;1.77;;;21.80;71.90;;;;;;5090465;28;20220;-66
2023/03/22 10:42:01;;;;;;;2.25;1.23;;;21.90;72.00;;;;;;5097065;28;20222;-65
2023/03/22 10:44:51;;;;;;;2.15;1.20;;;21.90;71.80;;;;;;5090476;28;20254;-64
2023/03/22 10:47:44;;;;;;;3.97;1.52;;;21.90;71.60;;;;;;5072507;28;20711;-66
2023/03/22 10:50:35;;;;;;;5.25;1.52;;;22.00;71.60;;;;;;5072589;28;20287;-64
2023/03/22 10:53:32;;;;;;;2.38;1.52;;;22.00;71.60;;;;;;5070002;28;20677;-65
2023/03/22 10:56:20;;;;;;;4.20;1.50;;;22.00;71.50;;;;;;5078027;28;20330;-67
2023/03/22 10:59:29;;;;;;;2.33;1.48;;;22.10;71.40;;;;;;5071423;28;20706;-66
2023/03/22 11:02:20;;;;;;;6.93;1.42;;;22.10;71.40;;;;;;5070313;28;20224;-65
2023/03/22 11:05:21;;;;;;;3.58;1.50;;;22.10;71.40;;;;;;5078914;28;20717;-66
2023/03/22 11:08:14;;;;;;;5.35;1.67;;;22.10;71.40;;;;;;5073129;28;20223;-67
2023/03/22 11:11:06;;;;;;;7.90;1.63;;;22.10;71.60;;;;;;5075386;28;20281;-67
2023/03/22 11:14:00;;;;;;;1.27;1.00;;;22.10;71.30;;;;;;5070933;28;20197;-66
2023/03/22 11:16:54;;;;;;;2.97;1.10;;;22.10;71.20;;;;;;5075597;22;20313;-70
2023/03/22 11:19:55;;;;;;;3.10;1.73;;;22.20;70.80;;;;;;5049132;28;20205;-69
2023/03/22 11:22:45;;;;;;;3.63;1.55;;;22.30;70.70;;;;;;5049518;28;20232;-68
2023/03/22 11:25:35;;;;;;;1.58;1.20;;;22.40;83.70;;;;;;5069751;28;20699;-68
2023/03/22 11:28:27;;;;;;;3.95;1.48;;;22.40;70.50;;;;;;5088692;28;20758;-68
2023/03/22 11:31:18;;;;;;;2.55;1.50;;;22.40;70.30;;;;;;5068805;28;20212;-67
2023/03/22 11:34:17;;;;;;;1.70;1.30;;;22.40;70.20;;;;;;5070144;28;20665;-69
2023/03/22 11:37:09;;;;;;;2.42;1.55;;;22.40;70.20;;;;;;5069940;28;20307;-67
2023/03/22 11:40:03;;;;;;;2.13;1.42;;;22.40;70.30;;;;;;5068907;28;20665;-68
2023/03/22 11:42:54;;;;;;;3.75;1.55;;;22.40;70.20;;;;;;5068271;28;20224;-67
2023/03/22 11:45:44;;;;;;;3.05;1.85;;;22.50;84.40;;;;;;5069423;28;20215;-68
2023/03/22 11:48:33;;;;;;;1.75;1.60;;;22.40;70.20;;;;;;5070141;28;20294;-69
2023/03/22 11:51:29;;;;;;;2.53;1.38;;;22.40;70.20;;;;;;5070402;28;20208;-69
2023/03/22 11:54:31;;;;;;;2.10;1.80;;;22.40;70.50;;;;;;5069187;28;20208;-70
2023/03/22 11:57:22;;;;;;;2.83;1.48;;;22.30;70.30;;;;;;5069765;28;20216;-69
2023/03/22 12:00:18;;;;;;;1.65;1.45;;;22.20;70.30;;;;;;5069810;28;20210;-69
2023/03/22 12:03:13;;;;;;;4.38;1.60;;;22.20;71.00;;;;;;5065809;28;20814;-70
2023/03/22 12:06:04;;;;;;;1.77;1.35;;;22.20;70.30;;;;;;5066121;28;20278;-69
2023/03/22 12:08:56;;;;;;;1.52;1.42;;;22.20;70.30;;;;;;5069334;28;20727;-70
2023/03/22 12:11:49;;;;;;;3.65;1.48;;;22.20;70.60;;;;;;5069237;28;20287;-69
2023/03/22 12:14:44;;;;;;;4.70;1.85;;;22.20;70.60;;;;;;5070193;28;20280;-70
2023/03/22 12:17:38;;;;;;;3.28;1.30;;;22.20;70.50;;;;;;5069477;28;20228;-69
2023/03/22 12:20:34;;;;;;;5.07;1.63;;;22.20;70.60;;;;;;5068311;28;20196;-70
2023/03/22 12:23:25;;;;;;;4.35;1.70;;;22.20;70.50;;;;;;5066259;28;20209;-69
2023/03/22 12:26:17;;;;;;;3.83;1.65;;;22.20;70.60;;;;;;5072775;28;20248;-67
2023/03/22 12:29:14;;;;;;;5.72;2.50;;;22.20;70.50;;;;;;5074173;28;20205;-68
2023/03/22 12:32:10;;;;;;;2.55;1.60;;;22.20;70.60;;;;;;5053835;28;20284;-68
2023/03/22 12:34:59;;;;;;;7.40;2.28;;;22.20;70.60;;;;;;5070573;28;20330;-69
2023/03/22 12:38:16;;;;;;;1.80;1.42;;;22.30;70.80;;;;;;5069139;28;20676;-70
2023/03/22 12:41:09;;;;;;;1.63;1.52;;;22.30;71.00;;;;;;5069949;28;20252;-71
2023/03/22 12:44:01;;;;;;;2.55;1.33;;;22.30;70.80;;;;;;5068015;28;20224;-72
2023/03/22 12:46:55;;;;;;;2.40;1.65;;;22.40;70.90;;;;;;5070961;28;20220;-72
2023/03/22 12:49:48;;;;;;;3.88;1.40;;;22.30;70.60;;;;;;5072423;28;20215;-72
2023/03/22 12:52:39;;;;;;;1.88;1.45;;;22.40;70.70;;;;;;5071575;28;20280;-72
2023/03/22 12:55:35;;;;;;;2.05;1.40;;;22.20;79.40;;;;;;5070426;28;20200;-70
2023/03/22 12:58:26;;;;;;;1.92;1.20;;;22.40;70.60;;;;;;5071960;28;20200;-69
2023/03/22 13:01:23;;;;;;;1.65;1.50;;;22.50;70.70;;;;;;5070620;28;20270;-72
2023/03/22 13:04:31;;;;;;;3.67;1.85;;;22.50;70.60;;;;;;5069858;28;20221;-73
2023/03/22 13:07:39;;;;;;;1.55;1.45;;;22.50;70.50;;;;;;5070003;28;20229;-72
2023/03/22 13:11:00;;;;;;;1.73;1.40;;;22.50;70.50;;;;;;5069738;28;20287;-74
2023/03/22 13:13:48;;;;;;;3.03;1.95;;;22.50;70.50;;;;;;5068922;28;20257;-73
2023/03/22 13:16:51;;;;;;;1.90;1.33;;;22.40;70.60;;;;;;5069311;28;20599;-73
2023/03/22 13:19:52;;;;;;;1.63;1.45;;;22.40;70.50;;;;;;5070204;28;20222;-70
2023/03/22 13:22:59;;;;;;;1.63;1.10;;;22.40;70.60;;;;;;5071336;28;20203;-71
2023/03/22 13:26:01;;;;;;;1.40;1.30;;;22.40;85.50;;;;;;5068691;28;20233;-71
2023/03/22 13:28:56;;;;;;;1.90;1.27;;;22.40;70.70;;;;;;5068885;28;20326;-71
2023/03/22 13:31:46;;;;;;;3.17;1.40;;;22.40;70.60;;;;;;5071600;28;20200;-73
2023/03/22 13:34:39;;;;;;;4.03;1.27;;;22.50;70.70;;;;;;5069847;28;20204;-70
2023/03/22 13:37:33;;;;;;;3.63;1.27;;;22.50;70.50;;;;;;5066322;28;20212;-71
2023/03/22 13:40:29;;;;;;;1.40;1.08;;;22.50;70.40;;;;;;5070489;28;20204;-70
2023/03/22 13:43:33;;;;;;;1.40;1.25;;;22.60;70.40;;;;;;5067900;28;20383;-71
2023/03/22 13:46:43;;;;;;;2.28;1.50;;;23.40;71.10;;;;;;5071818;28;20232;-71
2023/03/22 13:49:48;;;;;;;1.60;1.50;;;22.60;70.30;;;;;;5069667;28;20205;-69
2023/03/22 13:52:41;;;;;;;2.30;1.27;;;22.60;70.20;;;;;;5068841;28;20239;-71
2023/03/22 13:55:41;;;;;;;1.48;1.23;;;22.60;70.50;;;;;;5070332;28;20228;-71
2023/03/22 13:58:36;;;;;;;2.22;1.50;;;22.70;70.30;;;;;;5060151;28;20201;-74
2023/03/22 14:01:29;;;;;;;2.78;1.60;;;22.70;70.30;;;;;;5070019;28;20819;-71
2023/03/22 14:04:23;;;;;;;2.30;1.38;;;22.70;70.30;;;;;;5068363;28;20220;-72
2023/03/22 14:07:20;;;;;;;2.38;2.17;;;22.70;70.20;;;;;;5060853;28;20680;-70
2023/03/22 14:10:14;;;;;;;3.17;1.90;;;22.80;70.30;;;;;;5068413;28;20346;-70
2023/03/22 14:13:05;;;;;;;2.33;1.50;;;22.80;70.20;;;;;;5060577;28;20286;-70
2023/03/22 14:15:56;;;;;;;3.42;1.40;;;22.80;70.20;;;;;;5069650;28;20231;-69
2023/03/22 14:18:46;;;;;;;4.90;1.50;;;22.80;70.00;;;;;;5067551;28;20209;-76
2023/03/22 14:21:38;;;;;;;0.93;0.93;;;22.80;70.00;;;;;;5068117;28;20204;-70
2023/03/22 14:24:28;;;;;;;1.45;1.27;;;22.80;70.00;;;;;;5067550;28;20221;-70
2023/03/22 14:27:19;;;;;;;2.65;1.17;;;24.80;72.00;;;;;;5068072;28;20320;-70
2023/03/22 14:30:07;;;;;;;2.38;2.03;;;22.80;70.00;;;;;;5066358;28;20679;-73
2023/03/22 14:32:57;;;;;;;1.33;1.20;;;22.80;70.00;;;;;;5068599;28;20209;-72
2023/03/22 14:35:47;;;;;;;3.83;1.55;;;23.00;83.70;;;;;;5071715;28;20200;-71
2023/03/22 14:38:38;;;;;;;1.88;1.67;;;22.80;69.90;;;;;;5067647;28;20279;-70
2023/03/22 14:41:26;;;;;;;2.60;0.90;;;22.80;70.00;;;;;;5065725;28;20257;-72
2023/03/22 14:44:14;;;;;;;1.73;1.30;;;22.90;70.50;;;;;;5067556;28;20267;-70
2023/03/22 14:47:04;;;;;;;2.60;1.40;;;22.80;69.80;;;;;;5070516;28;20292;-70
2023/03/22 14:49:54;;;;;;;1.40;1.05;;;22.90;69.60;;;;;;5068829;28;20291;-70
2023/03/22 14:52:45;;;;;;;2.33;1.60;;;22.90;69.70;;;;;;5070796;28;20345;-71